Time;durP1;ratioP1;P1;durP2;ratioP2;P2;SDS_P1;SDS_P2;PMS_P1;PMS_P2;Temp;Humidity;BMP_temperature;BMP_pressure;BME280_temperature;BME280_humidity;BME280_pressure;Samples;Min_cycle;Max_cycle;Signal;HPM_P1;HPM_P2
2023/05/01 00:01:42;;;;;;;11.70;8.43;;;11.50;71.10;;;14.64;46.44;97564.72;5031721;28;20072;-45
2023/05/01 00:04:09;;;;;;;9.57;8.43;;;11.50;71.10;;;14.67;46.47;97566.19;5031233;28;20053;-46
2023/05/01 00:06:37;;;;;;;10.18;8.02;;;11.50;71.00;;;14.67;46.32;97563.50;5032082;28;20053;-44
2023/05/01 00:09:06;;;;;;;10.50;7.87;;;11.60;71.10;;;14.66;46.36;97565.38;5031920;28;20048;-44
2023/05/01 00:11:36;;;;;;;10.77;7.87;;;11.60;71.00;;;14.66;46.47;97559.19;5031796;28;20052;-44
2023/05/01 00:14:03;;;;;;;10.93;8.55;;;11.50;71.10;;;14.64;46.49;97561.22;5031774;28;20045;-44
2023/05/01 00:16:31;;;;;;;11.70;7.60;;;11.50;71.20;;;14.60;46.69;97555.41;5030438;28;20417;-44
2023/05/01 00:18:58;;;;;;;9.73;8.00;;;11.50;71.80;;;14.57;46.86;97556.59;5031545;28;20064;-45
2023/05/01 00:21:27;;;;;;;10.48;7.72;;;11.50;72.20;;;14.57;47.00;97545.88;5031414;28;20042;-45
2023/05/01 00:23:54;;;;;;;8.93;7.47;;;11.50;72.20;;;14.60;47.00;97549.19;5031423;28;20053;-45
2023/05/01 00:26:25;;;;;;;10.03;8.00;;;11.50;72.10;;;14.60;46.81;97543.84;5030763;28;20049;-44
2023/05/01 00:28:53;;;;;;;8.53;7.17;;;11.50;72.10;;;14.61;46.88;97545.50;5022205;28;20045;-45
2023/05/01 00:31:20;;;;;;;9.30;7.70;;;11.50;72.10;;;14.60;46.80;97542.00;5030558;28;20046;-45
2023/05/01 00:33:48;;;;;;;9.82;7.65;;;11.50;72.20;;;14.56;46.98;97532.66;5029827;28;20052;-46
2023/05/01 00:36:15;;;;;;;11.20;8.17;;;11.40;72.50;;;14.54;47.17;97532.03;5030031;28;20046;-44
2023/05/01 00:38:44;;;;;;;10.65;7.05;;;11.40;73.00;;;14.52;47.15;97529.53;5029294;28;20525;-44
2023/05/01 00:41:12;;;;;;;10.07;8.47;;;11.40;73.10;;;14.52;47.31;97526.84;5030244;28;20397;-44
2023/05/01 00:43:39;;;;;;;10.90;7.57;;;11.40;73.00;;;14.54;47.15;97521.31;5031136;28;20045;-45
2023/05/01 00:46:07;;;;;;;9.15;7.15;;;11.40;72.90;;;14.53;46.99;97522.31;5029468;28;20056;-46
2023/05/01 00:48:35;;;;;;;10.60;8.50;;;11.40;72.80;;;14.52;47.11;97515.28;5028656;28;20053;-45
2023/05/01 00:51:06;;;;;;;11.03;7.70;;;11.40;72.70;;;14.51;47.37;97516.31;5029288;28;20045;-44
2023/05/01 00:53:33;;;;;;;8.50;7.53;;;11.40;72.90;;;14.49;47.21;97518.34;5030801;28;20048;-47
2023/05/01 00:56:01;;;;;;;10.27;7.95;;;11.40;73.00;;;14.46;47.32;97511.53;5028954;28;20057;-44
2023/05/01 00:58:29;;;;;;;9.27;7.93;;;11.40;73.20;;;14.45;47.50;97509.03;5028966;28;20064;-45
2023/05/01 01:00:56;;;;;;;9.60;7.47;;;11.40;73.20;;;14.47;47.29;97501.66;5029830;28;20045;-44
2023/05/01 01:03:24;;;;;;;10.95;8.88;;;11.40;73.10;;;14.48;47.31;97519.38;5029639;28;20056;-45
2023/05/01 01:06:20;;;;;;;9.50;7.93;;;11.30;72.90;;;14.45;46.85;97507.19;5031119;28;20049;-44
2023/05/01 01:09:08;;;;;;;10.70;7.93;;;11.30;73.10;;;14.45;47.22;97504.50;5029694;28;20054;-44
2023/05/01 01:12:00;;;;;;;10.17;9.10;;;11.30;73.70;;;14.43;47.22;97506.56;5029480;28;20505;-45
2023/05/01 01:14:46;;;;;;;10.30;8.77;;;11.30;73.60;;;14.39;47.31;97494.56;5028376;28;20065;-46
2023/05/01 01:17:30;;;;;;;10.23;7.80;;;11.20;73.50;;;14.39;47.38;97494.56;5024290;28;20030;-45
2023/05/01 01:20:43;;;;;;;10.40;8.40;;;11.20;73.50;;;14.38;47.25;97490.22;5023241;28;20346;-44
2023/05/01 01:23:34;;;;;;;10.00;8.47;;;11.30;73.60;;;14.37;46.98;97486.72;5022291;28;20057;-47
2023/05/01 01:26:06;;;;;;;10.73;8.30;;;11.20;73.40;;;14.36;47.32;97493.09;5006815;28;20046;-44
2023/05/01 01:29:16;;;;;;;10.33;8.07;;;11.20;73.00;;;14.34;47.30;97488.94;5029009;28;20509;-44
2023/05/01 01:32:06;;;;;;;10.17;8.00;;;11.30;73.30;;;14.33;47.07;97484.63;5028859;28;20054;-48
2023/05/01 01:34:43;;;;;;;10.17;8.10;;;11.30;73.40;;;14.33;47.40;97481.94;5004865;28;20398;-45
2023/05/01 01:37:19;;;;;;;10.97;8.03;;;11.30;73.10;;;14.33;47.06;97479.25;5028554;28;20049;-45
2023/05/01 01:40:10;;;;;;;9.90;8.17;;;11.30;73.00;;;14.32;47.38;97478.41;5029428;28;20056;-44
2023/05/01 01:43:02;;;;;;;9.80;7.63;;;11.30;73.10;;;14.32;47.37;97478.41;5029627;28;20053;-45
2023/05/01 01:45:41;;;;;;;8.30;7.40;;;11.30;73.20;;;14.33;47.30;97477.41;5029443;28;20056;-46
2023/05/01 01:48:16;;;;;;;10.43;7.80;;;11.30;72.90;;;14.33;47.74;97480.06;5023273;28;20045;-44
2023/05/01 01:50:46;;;;;;;10.70;7.90;;;11.30;73.00;;;14.35;47.43;97475.34;5013166;28;20509;-45
2023/05/01 01:53:18;;;;;;;9.13;8.03;;;11.30;72.90;;;14.37;47.48;97467.16;5029028;28;20041;-45
2023/05/01 01:55:49;;;;;;;11.40;7.95;;;11.40;72.80;;;14.39;47.51;97473.13;5012950;28;20045;-44
2023/05/01 01:58:19;;;;;;;10.00;7.60;;;11.40;72.90;;;14.39;47.66;97475.81;5029795;28;20042;-44
2023/05/01 02:00:48;;;;;;;9.40;7.97;;;11.40;73.00;;;14.40;47.54;97471.28;5018801;28;20089;-36
2023/05/01 02:03:18;;;;;;;10.23;8.77;;;11.40;73.10;;;14.42;47.60;97464.69;5016810;28;20049;-37
2023/05/01 02:05:49;;;;;;;8.83;7.83;;;11.40;73.00;;;14.45;47.60;97461.66;5033786;28;20045;-37
2023/05/01 02:08:17;;;;;;;9.53;7.47;;;11.40;72.90;;;14.49;47.56;97462.13;5032024;28;20044;-37
2023/05/01 02:10:46;;;;;;;10.03;7.80;;;11.40;73.00;;;14.48;47.55;97455.94;5032569;28;20417;-37
2023/05/01 02:13:18;;;;;;;9.90;7.47;;;11.50;73.00;;;14.51;47.44;97457.38;5016531;28;20045;-37
2023/05/01 02:15:47;;;;;;;10.73;8.70;;;11.50;73.00;;;14.52;47.44;97453.69;5032311;28;20068;-37
2023/05/01 02:18:15;;;;;;;10.97;7.40;;;11.50;72.80;;;14.54;47.57;97451.66;5015621;28;20295;-37
2023/05/01 02:20:44;;;;;;;13.40;8.33;;;11.50;73.00;;;14.54;47.63;97463.19;5032307;28;20057;-37
2023/05/01 02:23:12;;;;;;;10.55;8.00;;;11.50;73.10;;;14.51;47.59;97452.03;5015807;28;20057;-37
2023/05/01 02:25:41;;;;;;;11.67;9.07;;;11.40;73.00;;;14.49;47.72;97449.53;5016016;28;20065;-36
2023/05/01 02:28:13;;;;;;;11.50;8.87;;;11.40;73.10;;;14.50;47.62;97453.91;5032350;28;20049;-37
2023/05/01 02:30:41;;;;;;;10.70;8.40;;;11.40;73.30;;;14.51;47.64;97452.84;5015631;28;20046;-36
2023/05/01 02:33:09;;;;;;;10.77;8.35;;;11.40;73.20;;;14.51;47.64;97452.03;5032630;28;20046;-37
2023/05/01 02:35:48;;;;;;;9.40;8.03;;;11.40;73.30;;;14.52;47.71;97442.97;5031846;28;20046;-37
2023/05/01 02:38:18;;;;;;;10.98;8.40;;;11.40;73.50;;;14.51;47.38;97444.00;5032139;28;20048;-37
2023/05/01 02:40:57;;;;;;;10.13;7.90;;;11.40;73.80;;;14.49;47.34;97446.03;5031852;28;20049;-37
2023/05/01 02:43:27;;;;;;;12.20;8.90;;;11.40;73.50;;;14.48;47.63;97445.22;5031840;28;20045;-37
2023/05/01 02:45:58;;;;;;;10.07;7.90;;;11.40;73.30;;;14.46;47.71;97438.38;5031672;28;20061;-37
2023/05/01 02:48:29;;;;;;;11.03;7.93;;;11.40;73.50;;;14.46;47.76;97438.38;5015264;28;20056;-37
2023/05/01 02:50:58;;;;;;;10.43;8.18;;;11.40;73.60;;;14.45;47.69;97434.06;5031643;28;20042;-37
2023/05/01 02:53:26;;;;;;;10.20;9.00;;;11.40;73.80;;;14.43;47.95;97428.88;5015887;28;20536;-37
2023/05/01 02:56:03;;;;;;;10.90;9.13;;;11.40;73.90;;;14.42;48.13;97429.06;5031932;28;20045;-36
2023/05/01 02:58:32;;;;;;;12.00;8.93;;;11.30;74.10;;;14.38;47.89;97432.16;5015120;28;20045;-37
2023/05/01 03:01:00;;;;;;;10.63;9.07;;;11.30;74.20;;;14.35;47.88;97429.84;5031371;28;20053;-37
2023/05/01 03:03:28;;;;;;;11.20;9.45;;;11.20;74.20;;;14.35;47.75;97426.34;5032455;28;20424;-36
2023/05/01 03:05:56;;;;;;;10.70;8.50;;;11.20;74.00;;;14.32;47.99;97427.53;5032661;28;20847;-37
2023/05/01 03:08:24;;;;;;;11.40;8.63;;;11.20;74.10;;;14.32;47.85;97429.38;5030926;28;20045;-37
2023/05/01 03:10:51;;;;;;;11.33;8.90;;;11.10;74.50;;;14.30;48.07;97431.41;5030081;28;20429;-37
2023/05/01 03:13:19;;;;;;;10.73;8.70;;;11.10;75.00;;;14.27;48.35;97429.09;5031393;28;20052;-36
2023/05/01 03:15:47;;;;;;;8.03;6.67;;;11.10;75.30;;;14.27;48.33;97429.97;5031825;28;20386;-36
2023/05/01 03:18:15;;;;;;;8.83;7.47;;;11.10;75.60;;;14.26;48.29;97419.44;5031765;28;20101;-36
2023/05/01 03:20:52;;;;;;;10.07;6.90;;;11.00;75.70;;;14.23;48.35;97419.81;5031848;28;20037;-37
2023/05/01 03:23:20;;;;;;;9.27;7.03;;;11.10;76.20;;;14.23;48.57;97420.66;5014944;28;20053;-37
2023/05/01 03:25:47;;;;;;;10.00;7.33;;;11.10;76.00;;;14.21;48.59;97424.53;5030665;28;20048;-37
2023/05/01 03:28:15;;;;;;;8.70;6.93;;;11.10;76.10;;;14.20;48.66;97423.69;5031557;28;20049;-37
2023/05/01 03:30:46;;;;;;;7.80;6.33;;;11.10;76.20;;;14.20;48.62;97418.34;5030854;28;20053;-36
2023/05/01 03:33:13;;;;;;;8.57;6.73;;;11.10;76.20;;;14.22;48.73;97420.84;5030700;28;20041;-37
2023/05/01 03:35:41;;;;;;;10.03;6.93;;;11.10;76.50;;;14.24;48.70;97416.94;5031964;28;20084;-37
2023/05/01 03:38:09;;;;;;;10.60;8.00;;;11.10;76.40;;;14.26;48.77;97414.09;5030790;28;20049;-37
2023/05/01 03:40:56;;;;;;;10.43;8.13;;;11.10;76.20;;;14.27;48.66;97418.41;5032912;28;20061;-36
2023/05/01 03:43:42;;;;;;;13.43;8.80;;;11.20;75.90;;;14.28;48.66;97409.38;5031987;28;20090;-37
2023/05/01 03:46:36;;;;;;;11.43;8.63;;;11.20;76.10;;;14.29;48.79;97406.50;5033019;28;20068;-36
2023/05/01 03:49:06;;;;;;;11.73;10.17;;;11.20;76.10;;;14.30;48.53;97410.81;5031366;28;20045;-37
2023/05/01 03:51:40;;;;;;;11.73;8.70;;;11.20;75.50;;;14.30;48.71;97405.47;5030777;28;20042;-37
2023/05/01 03:54:08;;;;;;;12.03;9.07;;;11.20;75.70;;;14.30;48.61;97404.66;5030496;28;20037;-36
2023/05/01 03:56:51;;;;;;;15.18;9.85;;;11.20;75.80;;;14.34;48.63;97404.06;5030341;28;20052;-37
2023/05/01 03:59:20;;;;;;;12.37;9.20;;;11.20;75.90;;;14.32;48.53;97403.41;5031300;28;20055;-37
2023/05/01 04:01:48;;;;;;;16.33;10.07;;;11.20;76.00;;;14.34;48.84;97400.56;5014421;28;20049;-37
2023/05/01 04:04:16;;;;;;;11.00;9.33;;;11.30;76.20;;;14.34;48.72;97396.03;5038710;28;20053;-37
2023/05/01 04:06:50;;;;;;;10.40;9.05;;;11.30;76.20;;;14.35;48.82;97400.38;5014651;28;20065;-37
2023/05/01 04:09:18;;;;;;;10.47;8.27;;;11.30;76.40;;;14.35;48.73;97408.41;5030497;28;20386;-37
2023/05/01 04:11:46;;;;;;;13.90;9.47;;;11.20;76.30;;;14.35;48.58;97407.59;5030205;28;20053;-37
2023/05/01 04:14:13;;;;;;;11.17;8.83;;;11.20;76.30;;;14.37;48.68;97402.88;5031661;28;20257;-36
2023/05/01 04:16:41;;;;;;;10.87;8.97;;;11.30;76.30;;;14.37;48.83;97403.69;5027362;28;20417;-36
2023/05/01 04:19:09;;;;;;;11.93;9.27;;;11.30;76.30;;;14.38;48.81;97401.84;5029937;28;20670;-37
2023/05/01 04:21:41;;;;;;;15.27;10.13;;;11.30;76.40;;;14.40;48.90;97398.97;5030193;28;20053;-36
2023/05/01 04:24:09;;;;;;;10.80;9.37;;;11.30;76.30;;;14.39;48.85;97398.16;5038396;28;20048;-37
2023/05/01 04:26:37;;;;;;;14.93;9.70;;;11.30;76.50;;;14.41;48.93;97397.97;5031236;28;20227;-36
2023/05/01 04:29:06;;;;;;;13.37;9.17;;;11.30;76.70;;;14.39;48.84;97392.78;5030038;28;20037;-37
2023/05/01 04:31:34;;;;;;;11.70;9.53;;;11.30;76.50;;;14.40;48.89;97393.63;5031184;28;20045;-37
2023/05/01 04:34:01;;;;;;;12.20;9.27;;;11.30;76.70;;;14.38;48.83;97391.13;5029839;28;20061;-36
2023/05/01 04:36:31;;;;;;;10.83;9.00;;;11.30;76.80;;;14.38;49.00;97391.97;5029797;28;20045;-36
2023/05/01 04:39:00;;;;;;;12.13;9.00;;;11.30;76.80;;;14.40;48.98;97399.78;5029855;28;20053;-36
2023/05/01 04:41:28;;;;;;;12.17;9.70;;;11.30;77.00;;;14.37;49.07;97398.34;5029720;28;20049;-36
2023/05/01 04:43:56;;;;;;;10.87;8.90;;;11.20;77.00;;;14.38;49.03;97399.16;5029676;28;20045;-37
2023/05/01 04:46:24;;;;;;;11.30;9.63;;;11.20;77.40;;;14.37;49.20;97397.50;5013268;28;20528;-37
2023/05/01 04:48:53;;;;;;;11.03;8.47;;;11.20;77.30;;;14.40;49.15;97401.66;5029424;28;20046;-37
2023/05/01 04:51:21;;;;;;;10.33;8.70;;;11.20;77.30;;;14.40;49.05;97394.44;5029459;28;20413;-37
2023/05/01 04:53:49;;;;;;;9.93;8.70;;;11.30;77.20;;;14.43;49.11;97401.28;5030075;28;20049;-37
2023/05/01 04:56:22;;;;;;;10.33;8.70;;;11.30;77.20;;;14.42;49.08;97403.09;5029437;28;20504;-36
2023/05/01 04:58:53;;;;;;;10.80;9.13;;;11.30;77.40;;;14.43;48.87;97396.75;5029806;28;20049;-37
2023/05/01 05:01:23;;;;;;;12.80;8.43;;;11.30;77.10;;;14.46;48.88;97400.88;5029603;28;20045;-37
2023/05/01 05:03:52;;;;;;;10.37;8.90;;;11.30;76.90;;;14.47;48.75;97400.69;5029263;28;20405;-37
2023/05/01 05:06:20;;;;;;;10.47;7.77;;;11.30;76.70;;;14.48;48.83;97405.03;5029793;28;20041;-37
2023/05/01 05:08:50;;;;;;;9.67;7.53;;;11.30;76.40;;;14.50;48.71;97400.31;5031423;28;20064;-36
2023/05/01 05:11:18;;;;;;;10.47;7.83;;;11.40;76.00;;;14.51;48.52;97403.81;5029538;28;20045;-37
2023/05/01 05:13:56;;;;;;;11.23;7.97;;;11.40;75.20;;;14.55;48.44;97402.41;5029469;28;20045;-37
2023/05/01 05:16:24;;;;;;;9.33;8.00;;;11.50;75.00;;;14.54;48.49;97403.44;5029382;28;20045;-36
2023/05/01 05:18:56;;;;;;;9.93;7.33;;;11.50;74.80;;;14.54;48.37;97404.28;5045988;28;20045;-37
2023/05/01 05:21:25;;;;;;;9.75;7.95;;;11.50;74.30;;;14.59;48.20;97405.56;5029622;28;20037;-37
2023/05/01 05:23:55;;;;;;;9.93;7.57;;;11.50;74.40;;;14.60;48.18;97404.53;5029257;28;20505;-37
2023/05/01 05:26:23;;;;;;;9.00;7.63;;;11.60;74.30;;;14.61;48.18;97396.31;5029309;28;20057;-37
2023/05/01 05:28:51;;;;;;;10.20;7.88;;;11.60;73.90;;;14.63;48.30;97402.31;5029779;28;20054;-37
2023/05/01 05:31:19;;;;;;;9.30;7.17;;;11.60;73.60;;;14.64;48.07;97405.84;5029480;28;20061;-37
2023/05/01 05:33:47;;;;;;;8.83;7.03;;;11.70;73.80;;;14.65;48.18;97407.47;5031408;28;20038;-37
2023/05/01 05:36:16;;;;;;;7.53;6.63;;;11.60;73.70;;;14.63;48.11;97407.66;5033835;28;20052;-37
2023/05/01 05:38:44;;;;;;;7.63;6.83;;;11.50;74.30;;;14.65;48.08;97404.78;5033512;28;20064;-37
2023/05/01 05:41:16;;;;;;;9.50;7.47;;;11.60;73.80;;;14.68;47.93;97412.47;5033250;28;20045;-37
2023/05/01 05:43:44;;;;;;;8.02;6.72;;;11.60;73.60;;;14.69;47.75;97406.88;5033261;28;20532;-37
2023/05/01 05:46:12;;;;;;;8.20;6.82;;;11.60;73.70;;;14.71;47.86;97401.34;5024842;28;20053;-37
2023/05/01 05:48:41;;;;;;;9.03;7.93;;;11.60;73.60;;;14.72;47.93;97411.88;5032810;28;20291;-37
2023/05/01 05:51:09;;;;;;;10.57;7.78;;;11.60;74.00;;;14.72;48.02;97403.84;5032996;28;20049;-37
2023/05/01 05:53:37;;;;;;;8.97;6.90;;;11.60;74.30;;;14.72;48.08;97403.84;5032478;28;20046;-37
2023/05/01 05:56:05;;;;;;;8.93;7.63;;;11.60;74.30;;;14.72;48.17;97400.34;5033244;28;20045;-37
2023/05/01 05:58:33;;;;;;;8.30;6.90;;;11.60;74.80;;;14.75;48.53;97405.28;5016062;28;20053;-37
2023/05/01 06:01:01;;;;;;;10.33;7.17;;;11.60;74.50;;;14.77;48.22;97403.25;5032699;28;20049;-37
2023/05/01 06:03:28;;;;;;;9.17;7.03;;;11.70;74.80;;;14.80;48.39;97408.22;5033405;28;20053;-37
2023/05/01 06:06:00;;;;;;;8.25;6.63;;;11.80;74.20;;;14.83;48.65;97415.88;5032701;28;20084;-37
2023/05/01 06:08:28;;;;;;;7.93;6.85;;;11.80;75.70;;;14.84;48.71;97411.34;5032630;28;20053;-37
2023/05/01 06:10:57;;;;;;;8.60;6.45;;;11.80;75.40;;;14.87;48.66;97411.78;5032517;28;20054;-37
2023/05/01 06:13:26;;;;;;;7.70;6.57;;;11.80;75.20;;;14.87;48.33;97414.47;5032789;28;20045;-37
2023/05/01 06:15:54;;;;;;;9.33;7.33;;;11.80;75.10;;;14.88;48.74;97409.94;5033618;28;20041;-37
2023/05/01 06:18:22;;;;;;;8.48;7.63;;;11.80;75.70;;;14.90;48.88;97418.59;5032047;28;20045;-37
2023/05/01 06:20:49;;;;;;;8.00;6.40;;;11.80;76.00;;;14.93;48.67;97408.34;5016454;28;20041;-37
2023/05/01 06:23:17;;;;;;;8.37;7.57;;;11.80;75.70;;;14.98;48.78;97418.47;5031639;28;20053;-37
2023/05/01 06:26:03;;;;;;;7.77;6.70;;;11.90;75.70;;;15.04;48.44;97414.16;5034041;28;20056;-37
2023/05/01 06:28:31;;;;;;;9.98;7.85;;;11.90;75.30;;;15.08;48.29;97410.94;5031587;28;20046;-37
2023/05/01 06:30:58;;;;;;;12.37;9.97;;;12.00;74.50;;;15.13;48.06;97405.78;5032121;28;20514;-37
2023/05/01 06:33:27;;;;;;;12.07;7.90;;;12.00;74.50;;;15.19;48.03;97406.84;5032030;28;20417;-37
2023/05/01 06:36:15;;;;;;;8.18;7.28;;;12.20;74.10;;;15.22;48.27;97413.66;5024706;28;20046;-37
2023/05/01 06:38:47;;;;;;;8.02;6.80;;;12.20;73.90;;;15.27;48.35;97411.25;5032184;28;20056;-37
2023/05/01 06:41:15;;;;;;;7.50;6.70;;;12.30;73.80;;;15.32;48.05;97412.31;5024774;28;20041;-37
2023/05/01 06:43:44;;;;;;;10.10;7.07;;;12.30;73.90;;;15.36;47.84;97416.25;5032069;28;20084;-37
2023/05/01 06:46:12;;;;;;;10.23;6.72;;;12.40;73.00;;;15.41;48.17;97409.47;5031317;28;20050;-37
2023/05/01 06:48:40;;;;;;;8.10;6.93;;;12.50;73.40;;;15.48;48.45;97415.69;5031814;28;20539;-37
2023/05/01 06:51:07;;;;;;;7.53;6.22;;;12.50;73.80;;;15.55;48.00;97414.72;5031819;28;20420;-37
2023/05/01 06:53:36;;;;;;;9.05;6.78;;;12.60;73.50;;;15.64;47.98;97422.59;5015808;28;20056;-37
2023/05/01 06:56:04;;;;;;;7.22;6.15;;;12.60;73.50;;;15.69;48.23;97418.28;5031764;28;20053;-37
2023/05/01 06:58:31;;;;;;;8.63;6.68;;;12.70;73.70;;;15.72;47.88;97425.94;5032461;28;20049;-37
2023/05/01 07:00:59;;;;;;;8.23;6.85;;;12.70;73.30;;;15.72;48.14;97427.78;5031418;28;20273;-37
2023/05/01 07:03:27;;;;;;;7.50;6.70;;;12.70;73.60;;;15.76;48.03;97429.09;5032390;28;20053;-37
2023/05/01 07:05:55;;;;;;;8.40;7.15;;;12.80;73.70;;;15.80;48.19;97433.03;5032827;28;20041;-37
2023/05/01 07:08:23;;;;;;;7.88;6.53;;;12.80;73.70;;;15.83;47.86;97429.94;5032660;28;20381;-37
2023/05/01 07:10:50;;;;;;;8.02;6.85;;;12.80;73.40;;;15.87;47.83;97433.06;5031417;28;20050;-37
2023/05/01 07:13:18;;;;;;;7.20;6.15;;;12.80;73.50;;;15.94;47.39;97433.91;5033068;28;20037;-36
2023/05/01 07:15:46;;;;;;;7.47;6.35;;;12.90;72.70;;;16.00;47.24;97433.09;5032979;28;20046;-36
2023/05/01 07:18:13;;;;;;;7.75;6.30;;;13.00;73.00;;;16.05;47.44;97433.34;5028366;28;20038;-37
2023/05/01 07:20:41;;;;;;;6.85;6.15;;;13.10;71.80;;;16.10;46.91;97427.34;5032666;28;20060;-37
2023/05/01 07:23:09;;;;;;;8.73;6.65;;;13.10;70.80;;;16.13;46.79;97433.16;5032423;28;20493;-36
2023/05/01 07:25:36;;;;;;;7.40;6.68;;;13.10;70.60;;;16.16;47.36;97426.53;5033535;28;20049;-37
2023/05/01 07:28:04;;;;;;;7.80;6.72;;;13.20;71.60;;;16.18;46.82;97420.97;5032609;28;20049;-41
2023/05/01 07:30:32;;;;;;;11.43;7.72;;;13.20;71.20;;;16.19;46.93;97428.00;5032306;28;20037;-36
2023/05/01 07:32:59;;;;;;;8.50;7.70;;;13.10;71.30;;;16.21;46.74;97425.97;5032253;28;20417;-36
2023/05/01 07:35:27;;;;;;;13.02;9.13;;;13.10;71.30;;;16.24;46.58;97420.16;5032344;28;20045;-36
2023/05/01 07:37:55;;;;;;;9.93;8.45;;;13.20;70.90;;;16.28;47.35;97424.09;5032018;28;20052;-38
2023/05/01 07:40:22;;;;;;;7.38;6.57;;;13.30;71.60;;;16.36;47.23;97423.91;5032068;28;20042;-38
2023/05/01 07:42:50;;;;;;;9.65;7.60;;;13.40;71.90;;;16.45;46.92;97424.56;5032054;28;20053;-38
2023/05/01 07:45:20;;;;;;;9.15;7.10;;;13.40;71.70;;;16.54;46.94;97423.34;5024531;28;20045;-37
2023/05/01 07:47:48;;;;;;;8.98;7.47;;;13.50;71.20;;;16.61;46.81;97424.16;5031700;28;20045;-36
2023/05/01 07:50:16;;;;;;;8.05;7.10;;;13.60;70.90;;;16.67;46.91;97420.66;5031905;28;20037;-36
2023/05/01 07:52:44;;;;;;;9.25;8.35;;;13.70;70.90;;;16.70;46.78;97408.66;5031823;28;20049;-37
2023/05/01 07:55:11;;;;;;;8.75;7.50;;;13.70;71.00;;;16.72;46.60;97406.59;5031683;28;20053;-37
2023/05/01 07:57:39;;;;;;;8.95;7.40;;;13.80;70.60;;;16.76;47.08;97401.66;5031299;28;20060;-36
2023/05/01 08:00:59;;;;;;;8.77;7.53;;;13.80;71.10;;;16.82;46.78;97403.53;5037843;28;20032;-43
2023/05/01 08:03:28;;;;;;;8.35;6.90;;;13.90;70.50;;;16.88;46.48;97408.91;5025243;28;20413;-36
2023/05/01 08:05:56;;;;;;;8.43;7.63;;;13.80;70.50;;;16.88;46.55;97411.59;5031382;28;20041;-36
2023/05/01 08:08:24;;;;;;;8.77;7.25;;;13.80;70.50;;;16.91;46.50;97413.06;5031445;28;20045;-36
2023/05/01 08:10:52;;;;;;;9.05;7.55;;;13.90;70.40;;;16.96;46.38;97404.34;5030170;28;20432;-36
2023/05/01 08:13:19;;;;;;;7.55;6.43;;;14.00;70.10;;;17.03;46.36;97406.00;5030508;28;20044;-36
2023/05/01 08:15:47;;;;;;;10.60;8.05;;;14.10;69.90;;;17.13;46.07;97417.16;5046798;28;20069;-36
2023/05/01 08:18:19;;;;;;;8.43;7.40;;;14.10;69.60;;;17.23;45.98;97405.16;5031186;28;20052;-36
2023/05/01 08:20:47;;;;;;;9.63;6.93;;;14.20;69.40;;;17.28;46.15;97414.25;5030525;28;20402;-36
2023/05/01 08:23:16;;;;;;;9.38;7.43;;;14.20;69.60;;;17.35;45.68;97408.88;5030638;28;20042;-36
2023/05/01 08:25:49;;;;;;;8.43;7.03;;;14.40;68.70;;;17.41;45.67;97413.41;5030237;28;20076;-36
2023/05/01 08:28:20;;;;;;;7.05;6.35;;;14.50;68.50;;;17.48;45.29;97410.69;5031129;28;20037;-36
2023/05/01 08:30:50;;;;;;;7.68;6.90;;;14.60;67.50;;;17.55;45.21;97410.69;5031547;28;20448;-36
2023/05/01 08:33:18;;;;;;;8.70;6.80;;;14.60;67.20;;;17.59;45.18;97407.34;5030909;28;20052;-37
2023/05/01 08:35:45;;;;;;;7.40;6.70;;;14.70;67.20;;;17.62;45.18;97406.94;5031261;28;20293;-37
2023/05/01 08:38:13;;;;;;;7.85;6.85;;;14.70;67.20;;;17.61;45.18;97410.66;5029718;28;20037;-37
2023/05/01 08:40:50;;;;;;;7.72;6.80;;;14.70;67.00;;;17.60;45.44;97406.31;5032121;28;20052;-37
2023/05/01 08:43:18;;;;;;;9.35;8.30;;;14.70;67.40;;;17.64;45.19;97395.94;5031270;28;20041;-36
2023/05/01 08:45:47;;;;;;;9.02;7.85;;;14.70;67.60;;;17.70;45.00;97405.88;5031091;28;20060;-37
2023/05/01 08:48:17;;;;;;;8.32;7.25;;;14.80;67.20;;;17.78;45.17;97402.94;5030810;28;20061;-37
2023/05/01 08:50:46;;;;;;;9.00;7.25;;;14.90;67.10;;;17.88;45.06;97408.72;5031129;28;20080;-37
2023/05/01 08:53:21;;;;;;;9.05;7.32;;;15.00;66.70;;;18.00;44.98;97408.06;5031483;28;20053;-38
2023/05/01 08:55:50;;;;;;;13.00;7.68;;;15.10;66.50;;;18.09;44.80;97401.41;5029482;28;20049;-37
2023/05/01 08:58:19;;;;;;;8.05;6.88;;;15.20;66.20;;;18.09;44.58;97409.47;5030570;28;20045;-37
2023/05/01 09:00:47;;;;;;;9.43;7.60;;;15.30;65.50;;;18.07;44.60;97400.78;5029792;28;20497;-38
2023/05/01 09:03:16;;;;;;;8.93;6.70;;;15.30;65.70;;;18.13;44.67;97399.09;5029457;28;20420;-37
2023/05/01 09:05:45;;;;;;;8.18;7.15;;;15.30;65.70;;;18.16;44.71;97406.75;5029567;28;20049;-37
2023/05/01 09:08:13;;;;;;;9.82;8.15;;;15.30;65.80;;;18.16;44.73;97404.03;5030519;28;20524;-37
2023/05/01 09:10:46;;;;;;;7.38;6.43;;;15.20;65.90;;;18.17;44.52;97405.72;5035114;28;20080;-37
2023/05/01 09:13:14;;;;;;;9.60;7.50;;;15.20;65.70;;;18.14;44.38;97412.34;5033917;28;20423;-37
2023/05/01 09:15:42;;;;;;;8.73;7.35;;;15.20;65.70;;;18.13;44.60;97408.00;5035090;28;20037;-37
2023/05/01 09:18:10;;;;;;;9.10;7.50;;;15.10;66.30;;;18.17;44.61;97406.53;5034490;28;20469;-37
2023/05/01 09:20:39;;;;;;;8.38;7.57;;;15.30;66.30;;;18.26;44.63;97409.78;5033781;28;20425;-37
2023/05/01 09:23:07;;;;;;;9.50;8.02;;;15.40;65.60;;;18.36;44.41;97409.31;5032601;28;20056;-37
2023/05/01 09:25:35;;;;;;;9.13;8.05;;;15.50;65.50;;;18.44;44.21;97403.69;5034560;28;20051;-37
2023/05/01 09:28:05;;;;;;;8.95;7.20;;;15.70;64.90;;;18.48;44.31;97407.59;5034375;28;20056;-37
2023/05/01 09:30:37;;;;;;;8.60;7.63;;;15.80;64.50;;;18.54;44.21;97412.09;5034784;28;20410;-37
2023/05/01 09:33:05;;;;;;;10.50;7.68;;;15.80;63.90;;;18.66;44.14;97407.66;5034470;28;20416;-37
2023/05/01 09:35:54;;;;;;;17.70;12.35;;;16.00;64.10;;;18.76;44.15;97407.16;5034191;28;20420;-37
2023/05/01 09:38:27;;;;;;;9.35;7.82;;;16.10;63.20;;;18.78;43.58;97407.78;5034206;28;20049;-37
2023/05/01 09:41:04;;;;;;;12.48;9.55;;;16.00;62.60;;;18.76;43.99;97407.16;5034656;28;20045;-37
2023/05/01 09:43:31;;;;;;;11.48;9.05;;;16.10;63.60;;;18.78;43.87;97409.66;5028062;28;20041;-37
2023/05/01 09:46:08;;;;;;;10.82;8.75;;;16.00;64.20;;;18.79;43.93;97405.94;5033962;28;20056;-37
2023/05/01 09:48:36;;;;;;;8.82;7.25;;;16.00;63.90;;;18.84;43.80;97408.81;5034141;28;20056;-37
2023/05/01 09:51:31;;;;;;;14.10;8.07;;;16.00;63.80;;;18.91;43.95;97404.19;5034284;28;20045;-37
2023/05/01 09:54:03;;;;;;;8.93;7.20;;;16.10;62.80;;;19.04;43.59;97408.66;5034222;28;20056;-39
2023/05/01 09:56:33;;;;;;;11.57;9.48;;;16.10;64.00;;;19.11;43.64;97416.69;5033378;28;20497;-35
2023/05/01 09:59:20;;;;;;;11.10;9.05;;;16.20;63.90;;;19.14;43.76;97417.06;5034153;28;20072;-36
2023/05/01 10:01:48;;;;;;;9.20;8.27;;;16.30;62.20;;;19.19;43.43;97413.69;5034232;28;20041;-36
2023/05/01 10:04:28;;;;;;;8.63;7.65;;;16.40;63.30;;;19.20;43.11;97418.88;5032551;28;20045;-36
2023/05/01 10:06:56;;;;;;;8.13;7.32;;;16.40;62.60;;;19.21;43.12;97419.69;5034087;28;20046;-36
2023/05/01 10:09:29;;;;;;;10.38;8.55;;;16.40;62.70;;;19.20;43.37;97418.06;5032709;28;20413;-37
2023/05/01 10:11:57;;;;;;;;;;;16.40;62.50;;;19.31;43.29;97422.72;5034180;28;20041;-37
2023/05/01 10:14:27;;;;;;;8.23;7.38;;;16.40;61.80;;;19.31;43.05;97416.47;5033748;28;19921;-47
2023/05/01 10:16:58;;;;;;;9.63;7.75;;;16.30;63.20;;;19.27;43.23;97422.34;5033650;28;20049;-46
2023/05/01 10:19:25;;;;;;;7.35;6.55;;;16.40;63.10;;;19.26;42.74;97412.56;5029377;28;20041;-46
2023/05/01 10:21:53;;;;;;;8.73;7.57;;;16.40;60.60;;;19.12;42.30;97421.84;5032087;28;20045;-45
2023/05/01 10:24:21;;;;;;;10.18;7.95;;;16.20;61.20;;;19.07;41.84;97419.81;5033441;28;20049;-45
2023/05/01 10:26:49;;;;;;;7.97;7.18;;;16.00;60.40;;;18.99;41.87;97413.88;5033307;28;20049;-45
2023/05/01 10:29:22;;;;;;;7.05;5.90;;;16.00;60.60;;;19.03;41.92;97413.19;5033727;28;20045;-46
2023/05/01 10:31:49;;;;;;;7.57;6.85;;;16.10;61.00;;;19.20;42.28;97415.34;5032260;28;20042;-44